Time;durP1;ratioP1;P1;durP2;ratioP2;P2;SDS_P1;SDS_P2;PMS_P1;PMS_P2;Temp;Humidity;BMP_temperature;BMP_pressure;BME280_temperature;BME280_humidity;BME280_pressure;Samples;Min_cycle;Max_cycle;Signal;HPM_P1;HPM_P2
2020/12/31 00:01:23;;;;;;;17.60;13.30;;;6.20;99.90;;;;;;5010110;28;20615;-72
2020/12/31 00:04:08;;;;;;;15.70;13.87;;;6.20;99.90;;;;;;5009795;28;20642;-72
2020/12/31 00:06:52;;;;;;;17.73;12.90;;;6.10;99.90;;;;;;4999375;28;20690;-73
2020/12/31 00:09:37;;;;;;;16.50;13.33;;;6.30;99.90;;;;;;5004447;28;20614;-73
2020/12/31 00:12:21;;;;;;;17.00;12.83;;;6.30;99.90;;;;;;5007609;28;20642;-73
2020/12/31 00:15:06;;;;;;;19.50;14.60;;;6.30;99.90;;;;;;4998812;28;20909;-72
2020/12/31 00:17:51;;;;;;;16.13;13.10;;;6.30;99.90;;;;;;5007559;28;20692;-73
2020/12/31 00:20:35;;;;;;;16.47;13.93;;;6.30;99.90;;;;;;4995673;28;20622;-72
2020/12/31 00:23:20;;;;;;;17.00;14.40;;;6.40;99.90;;;;;;4990586;28;20642;-73
2020/12/31 00:26:04;;;;;;;18.23;13.20;;;6.40;99.90;;;;;;4995740;28;21070;-73
2020/12/31 00:28:49;;;;;;;18.53;13.83;;;6.40;99.90;;;;;;4998177;28;20591;-73
2020/12/31 00:31:33;;;;;;;16.23;13.17;;;6.40;99.90;;;;;;5009595;28;20620;-72
2020/12/31 00:34:18;;;;;;;18.53;15.13;;;6.40;99.90;;;;;;5004703;28;20656;-73
2020/12/31 00:37:02;;;;;;;16.93;14.87;;;6.40;99.90;;;;;;4995034;28;20671;-73
2020/12/31 00:39:47;;;;;;;16.17;14.40;;;6.30;99.90;;;;;;4986269;28;20643;-73
2020/12/31 00:42:34;;;;;;;17.00;14.47;;;6.40;99.90;;;;;;5006732;28;20639;-72
2020/12/31 00:45:19;;;;;;;15.93;13.53;;;6.40;99.90;;;;;;5014289;28;20604;-73
2020/12/31 00:48:04;;;;;;;15.80;13.80;;;6.50;99.90;;;;;;5004260;28;20592;-73
2020/12/31 00:50:48;;;;;;;17.67;14.37;;;6.50;99.90;;;;;;4995899;28;20611;-73
2020/12/31 00:53:33;;;;;;;14.63;13.07;;;6.50;99.90;;;;;;5000222;28;20632;-73
2020/12/31 00:56:18;;;;;;;15.80;14.10;;;6.50;99.90;;;;;;5006409;28;20642;-72
2020/12/31 00:59:02;;;;;;;16.47;14.03;;;6.40;99.90;;;;;;5010395;28;21237;-72
2020/12/31 01:01:46;;;;;;;15.93;13.47;;;6.40;99.90;;;;;;4992072;28;20628;-73
2020/12/31 01:04:31;;;;;;;15.10;13.00;;;6.40;99.90;;;;;;4991911;28;20767;-73
2020/12/31 01:07:18;;;;;;;16.43;13.63;;;6.30;99.90;;;;;;5006977;28;21009;-73
2020/12/31 01:10:07;;;;;;;15.37;13.10;;;6.40;99.90;;;;;;4990959;28;20603;-73
2020/12/31 01:12:51;;;;;;;17.83;13.10;;;6.30;99.90;;;;;;4988865;28;20713;-73
2020/12/31 01:15:36;;;;;;;21.53;12.87;;;6.40;99.90;;;;;;4992300;28;20628;-73
2020/12/31 01:18:21;;;;;;;12.67;11.37;;;6.40;99.90;;;;;;5001398;28;20624;-73
2020/12/31 01:21:10;;;;;;;13.77;12.27;;;6.40;99.90;;;;;;5009040;28;20603;-73
2020/12/31 01:23:55;;;;;;;13.13;11.50;;;6.40;99.90;;;;;;5006090;28;20773;-74
2020/12/31 01:26:39;;;;;;;13.77;12.37;;;6.50;99.90;;;;;;5005164;28;20692;-73
2020/12/31 01:29:24;;;;;;;14.07;11.53;;;6.50;99.90;;;;;;5008659;28;20591;-72
2020/12/31 01:32:08;;;;;;;15.37;12.80;;;6.50;99.90;;;;;;5000688;28;21206;-72
2020/12/31 01:34:53;;;;;;;15.60;11.60;;;6.40;99.90;;;;;;5010352;28;20588;-73
2020/12/31 01:37:37;;;;;;;18.27;13.00;;;6.30;99.90;;;;;;4994718;28;21029;-72
2020/12/31 01:40:22;;;;;;;13.10;11.70;;;6.30;99.90;;;;;;5006454;28;20617;-72
2020/12/31 01:43:08;;;;;;;14.20;11.80;;;6.30;99.90;;;;;;4991714;28;21581;-72
2020/12/31 01:45:54;;;;;;;15.03;11.93;;;6.30;99.90;;;;;;4995771;28;21241;-72
2020/12/31 01:48:39;;;;;;;15.80;11.97;;;6.30;99.90;;;;;;4996892;28;20608;-73
2020/12/31 01:51:25;;;;;;;13.90;11.40;;;6.30;99.90;;;;;;5009823;28;20599;-72
2020/12/31 01:54:10;;;;;;;14.03;12.07;;;6.30;99.90;;;;;;4985726;28;20639;-74
2020/12/31 01:56:56;;;;;;;15.83;12.30;;;6.30;99.90;;;;;;5009196;28;20683;-73
2020/12/31 01:59:45;;;;;;;15.60;12.30;;;6.30;99.90;;;;;;5012032;28;20615;-73
2020/12/31 02:02:29;;;;;;;13.63;10.30;;;6.40;99.90;;;;;;4995674;28;20639;-73
2020/12/31 02:05:14;;;;;;;13.67;11.33;;;6.40;99.90;;;;;;5007038;28;20592;-72
2020/12/31 02:07:59;;;;;;;12.30;11.00;;;6.40;99.90;;;;;;4997638;28;20623;-73
2020/12/31 02:10:43;;;;;;;13.90;11.20;;;6.40;99.90;;;;;;4997181;28;20627;-73
2020/12/31 02:13:28;;;;;;;14.00;10.83;;;6.30;99.90;;;;;;5005071;28;20672;-73
2020/12/31 02:16:25;;;;;;;13.20;10.87;;;6.40;99.90;;;;;;5011876;28;21261;-73
2020/12/31 02:19:15;;;;;;;16.13;12.60;;;6.30;99.90;;;;;;4995823;28;20669;-73
2020/12/31 02:22:00;;;;;;;13.87;12.40;;;6.30;99.90;;;;;;4993122;28;20600;-72
2020/12/31 02:24:45;;;;;;;13.90;12.40;;;6.20;99.90;;;;;;4995176;28;20661;-73
2020/12/31 02:27:29;;;;;;;16.67;12.57;;;6.20;99.90;;;;;;4991027;28;20673;-73
2020/12/31 02:30:14;;;;;;;14.73;11.87;;;6.30;99.90;;;;;;5007474;28;20643;-73
2020/12/31 02:32:58;;;;;;;16.00;13.33;;;6.20;99.90;;;;;;4995963;28;20993;-73
2020/12/31 02:35:43;;;;;;;18.03;13.30;;;6.20;99.90;;;;;;4986996;28;20662;-72
2020/12/31 02:38:27;;;;;;;17.50;13.63;;;6.20;99.90;;;;;;5006981;28;21201;-71
2020/12/31 02:41:12;;;;;;;15.43;13.40;;;6.10;99.90;;;;;;5005816;28;20595;-72
2020/12/31 02:43:57;;;;;;;16.53;13.07;;;6.10;99.90;;;;;;4994234;28;20627;-72
2020/12/31 02:46:42;;;;;;;18.23;14.10;;;6.10;99.90;;;;;;5004792;28;21058;-72
2020/12/31 02:49:26;;;;;;;15.67;12.90;;;6.10;99.90;;;;;;5008901;28;20681;-72
2020/12/31 02:52:11;;;;;;;17.50;14.20;;;6.10;99.90;;;;;;5010101;28;20619;-72
2020/12/31 02:54:55;;;;;;;15.10;13.37;;;6.00;99.90;;;;;;5005076;28;20747;-73
2020/12/31 02:57:40;;;;;;;18.10;13.57;;;6.00;99.90;;;;;;5007216;28;20667;-72
2020/12/31 03:00:24;;;;;;;20.47;14.43;;;6.00;99.90;;;;;;5008063;28;20623;-72
2020/12/31 03:03:09;;;;;;;18.87;14.47;;;6.00;99.90;;;;;;4992856;28;20651;-72
2020/12/31 03:05:54;;;;;;;21.00;14.77;;;5.90;99.90;;;;;;4997557;28;20726;-72
2020/12/31 03:08:39;;;;;;;20.87;15.50;;;5.90;99.90;;;;;;5008368;28;20627;-73
2020/12/31 03:11:25;;;;;;;18.90;15.30;;;5.90;99.90;;;;;;5009702;28;20627;-72
2020/12/31 03:14:10;;;;;;;21.47;16.00;;;5.90;99.90;;;;;;5004543;28;20998;-72
2020/12/31 03:16:54;;;;;;;21.50;17.10;;;5.90;99.90;;;;;;5002037;28;20669;-72
2020/12/31 03:19:38;;;;;;;20.37;15.20;;;6.00;99.90;;;;;;4996322;28;20592;-72
2020/12/31 03:22:23;;;;;;;21.80;16.73;;;5.90;99.90;;;;;;4994262;28;20748;-72
2020/12/31 03:25:10;;;;;;;24.33;17.70;;;5.90;99.90;;;;;;4986937;28;20890;-73
2020/12/31 03:27:55;;;;;;;23.10;17.43;;;5.90;99.90;;;;;;5046031;23;20818;-67
2020/12/31 03:30:41;;;;;;;24.80;17.97;;;5.90;99.90;;;;;;5022520;28;21205;-67
2020/12/31 03:33:26;;;;;;;25.20;18.40;;;5.90;99.90;;;;;;5025596;28;20718;-68
2020/12/31 03:36:11;;;;;;;29.40;19.57;;;5.90;99.90;;;;;;5027457;28;20727;-69
2020/12/31 03:38:57;;;;;;;24.97;18.33;;;5.90;99.90;;;;;;5043673;28;20736;-67
2020/12/31 03:41:41;;;;;;;26.30;18.30;;;5.90;99.90;;;;;;5066127;28;20683;-67
2020/12/31 03:44:26;;;;;;;27.70;18.50;;;5.90;99.90;;;;;;5050818;28;21274;-69
2020/12/31 03:47:10;;;;;;;27.03;18.47;;;5.80;99.90;;;;;;5050048;28;20652;-67
2020/12/31 03:49:55;;;;;;;24.67;18.70;;;5.80;99.90;;;;;;5046794;28;20967;-67
2020/12/31 03:52:40;;;;;;;26.53;19.67;;;5.70;99.90;;;;;;5041708;28;20640;-67
2020/12/31 03:55:25;;;;;;;26.60;18.00;;;5.80;99.90;;;;;;5046330;28;20597;-67
2020/12/31 03:58:10;;;;;;;24.00;18.20;;;5.70;99.90;;;;;;5051196;28;21036;-67
2020/12/31 04:00:54;;;;;;;26.30;18.70;;;5.60;99.90;;;;;;5046789;28;20624;-67
2020/12/31 04:03:39;;;;;;;23.70;18.00;;;5.60;99.90;;;;;;5041305;28;20778;-67
2020/12/31 04:06:23;;;;;;;27.17;19.17;;;5.50;99.90;;;;;;5042604;28;20720;-67
2020/12/31 04:09:08;;;;;;;26.57;19.40;;;5.50;99.90;;;;;;5054989;28;20667;-67
2020/12/31 04:11:52;;;;;;;27.20;18.77;;;5.50;99.90;;;;;;5046190;28;20626;-67
2020/12/31 04:14:37;;;;;;;23.87;17.43;;;5.50;99.90;;;;;;5045638;28;20995;-66
2020/12/31 04:17:21;;;;;;;27.50;18.13;;;5.60;99.90;;;;;;5051851;28;20674;-67
2020/12/31 04:20:06;;;;;;;25.83;18.70;;;5.60;99.90;;;;;;5047496;28;20712;-67
2020/12/31 04:22:50;;;;;;;26.70;19.00;;;5.60;99.90;;;;;;5047180;28;20636;-67
2020/12/31 04:25:37;;;;;;;25.37;18.70;;;5.60;99.90;;;;;;5042023;28;20617;-67
2020/12/31 04:28:21;;;;;;;25.27;18.70;;;5.60;99.90;;;;;;5061973;28;21241;-67
2020/12/31 04:31:06;;;;;;;26.43;18.23;;;5.60;99.90;;;;;;5055707;28;20596;-67
2020/12/31 04:33:50;;;;;;;29.33;18.40;;;5.60;99.90;;;;;;5056076;28;20628;-67
2020/12/31 04:36:34;;;;;;;25.30;17.93;;;5.50;99.90;;;;;;5052068;28;20637;-67
2020/12/31 04:39:19;;;;;;;26.90;19.30;;;5.50;99.90;;;;;;5047208;28;20617;-67
2020/12/31 04:42:05;;;;;;;24.40;18.37;;;5.50;99.90;;;;;;5047921;28;20640;-67
2020/12/31 04:44:50;;;;;;;28.80;18.50;;;5.50;99.90;;;;;;5037878;28;20573;-67
2020/12/31 04:47:52;;;;;;;27.67;19.30;;;5.50;99.90;;;;;;5052368;28;20726;-67
2020/12/31 04:50:42;;;;;;;26.27;18.80;;;5.40;99.90;;;;;;5056021;28;20651;-67
2020/12/31 04:53:26;;;;;;;26.30;18.03;;;5.40;99.90;;;;;;5048121;28;21214;-67
2020/12/31 04:56:14;;;;;;;25.20;18.43;;;5.40;99.90;;;;;;5057662;28;20683;-67
2020/12/31 04:58:59;;;;;;;27.20;19.63;;;5.30;99.90;;;;;;5069605;28;20668;-67
2020/12/31 05:01:45;;;;;;;26.90;18.70;;;5.40;99.90;;;;;;5055017;28;20657;-67
2020/12/31 05:04:33;;;;;;;25.73;18.80;;;5.40;99.90;;;;;;5062399;28;20640;-67
2020/12/31 05:07:19;;;;;;;26.47;18.37;;;5.40;99.90;;;;;;5039166;28;20736;-67
2020/12/31 05:10:11;;;;;;;29.27;20.43;;;5.30;99.90;;;;;;5051162;28;20661;-67
2020/12/31 05:13:09;;;;;;;27.63;20.33;;;5.40;99.90;;;;;;5044918;28;20649;-67
2020/12/31 05:15:53;;;;;;;28.20;19.30;;;5.30;99.90;;;;;;5055134;28;20756;-67
2020/12/31 05:18:42;;;;;;;25.93;18.93;;;5.30;99.90;;;;;;5069533;28;21318;-67
2020/12/31 05:21:26;;;;;;;28.17;19.20;;;5.30;99.90;;;;;;5055226;28;20976;-67
2020/12/31 05:24:14;;;;;;;25.60;18.73;;;5.40;99.90;;;;;;5041461;28;20642;-67
2020/12/31 05:26:58;;;;;;;28.43;18.77;;;5.50;99.90;;;;;;5038523;28;20669;-67
2020/12/31 05:30:16;;;;;;;27.40;20.10;;;5.50;99.90;;;;;;5041860;28;20655;-67
2020/12/31 05:33:04;;;;;;;26.10;18.47;;;5.60;99.90;;;;;;5021617;28;20636;-67
2020/12/31 05:35:49;;;;;;;24.80;18.53;;;5.60;99.90;;;;;;5051326;28;20780;-67
2020/12/31 05:38:33;;;;;;;25.23;19.50;;;5.50;99.90;;;;;;5049603;28;20680;-67
2020/12/31 05:41:18;;;;;;;24.23;17.90;;;5.50;99.90;;;;;;5050700;28;20616;-66
2020/12/31 05:44:05;;;;;;;26.70;18.87;;;5.50;99.90;;;;;;5043491;28;20802;-67
2020/12/31 05:46:54;;;;;;;26.77;18.67;;;5.50;99.90;;;;;;5061948;28;20652;-67
2020/12/31 05:49:38;;;;;;;25.23;19.73;;;5.50;99.90;;;;;;5051486;28;20620;-67
2020/12/31 05:52:36;;;;;;;26.30;19.90;;;5.50;99.90;;;;;;5048351;28;20796;-67
2020/12/31 05:55:23;;;;;;;24.93;18.43;;;5.40;99.90;;;;;;5052231;28;21167;-67
2020/12/31 05:58:17;;;;;;;28.90;19.53;;;5.40;99.90;;;;;;5058263;28;20660;-67
2020/12/31 06:01:08;;;;;;;27.03;19.43;;;5.40;99.90;;;;;;5047604;28;20950;-67
2020/12/31 06:04:06;;;;;;;23.20;17.97;;;5.30;99.90;;;;;;5037967;28;21325;-68
2020/12/31 06:07:18;;;;;;;27.73;19.20;;;5.40;99.90;;;;;;5047921;28;20776;-67
2020/12/31 06:10:05;;;;;;;24.83;18.47;;;5.40;99.90;;;;;;5065989;28;20620;-67
2020/12/31 06:12:55;;;;;;;24.63;18.30;;;5.30;99.90;;;;;;5050973;28;20694;-68
2020/12/31 06:15:45;;;;;;;25.77;18.50;;;5.30;99.90;;;;;;5042270;28;20622;-67
2020/12/31 06:18:33;;;;;;;24.60;17.60;;;5.30;99.90;;;;;;5038930;28;20626;-68
2020/12/31 06:21:38;;;;;;;24.27;16.80;;;5.30;99.90;;;;;;5053644;28;20592;-68
2020/12/31 06:24:31;;;;;;;24.47;17.63;;;5.20;99.90;;;;;;5052026;28;20638;-68
2020/12/31 06:27:17;;;;;;;24.20;16.93;;;5.30;99.90;;;;;;5055934;28;20688;-67
2020/12/31 06:30:04;;;;;;;25.13;19.43;;;5.30;99.90;;;;;;5051114;28;21238;-67
2020/12/31 06:32:49;;;;;;;27.10;18.80;;;5.30;99.90;;;;;;5051046;28;20650;-67
2020/12/31 06:35:34;;;;;;;25.97;17.60;;;5.30;99.90;;;;;;5045990;28;20636;-67
2020/12/31 06:38:31;;;;;;;27.43;20.10;;;5.40;99.90;;;;;;5051622;28;21230;-67
2020/12/31 06:41:31;;;;;;;24.33;17.63;;;5.40;99.90;;;;;;5047039;28;20601;-67
2020/12/31 06:44:17;;;;;;;24.67;18.23;;;5.40;99.90;;;;;;5051646;28;20679;-67
2020/12/31 06:47:02;;;;;;;24.30;18.00;;;5.30;99.90;;;;;;5052388;28;21235;-67
2020/12/31 06:49:57;;;;;;;27.00;19.33;;;5.20;99.90;;;;;;5050572;28;20624;-67
2020/12/31 06:52:41;;;;;;;25.63;18.10;;;5.20;99.90;;;;;;5024783;28;21335;-67
2020/12/31 06:55:26;;;;;;;25.83;17.83;;;5.10;99.90;;;;;;5052790;28;20590;-67
2020/12/31 06:58:24;;;;;;;25.40;17.53;;;5.10;99.90;;;;;;5044561;28;20655;-67
2020/12/31 07:01:26;;;;;;;23.93;17.20;;;5.10;99.90;;;;;;5044813;28;21133;-67
2020/12/31 07:04:35;;;;;;;28.83;17.63;;;5.10;99.90;;;;;;5035639;28;20637;-67
2020/12/31 07:07:19;;;;;;;22.30;17.20;;;5.10;99.90;;;;;;5036736;28;20661;-67
2020/12/31 07:10:04;;;;;;;24.60;18.90;;;5.10;99.90;;;;;;5049244;28;20643;-67
2020/12/31 07:12:49;;;;;;;24.87;18.50;;;5.20;99.90;;;;;;5043937;28;20783;-67
2020/12/31 07:15:38;;;;;;;25.30;18.53;;;5.20;99.90;;;;;;5050706;28;21052;-67
2020/12/31 07:18:24;;;;;;;28.27;18.50;;;5.20;99.90;;;;;;5044005;28;20616;-67
2020/12/31 07:21:09;;;;;;;24.97;16.80;;;5.20;99.90;;;;;;5037549;28;20601;-67
2020/12/31 07:23:54;;;;;;;24.40;16.93;;;5.30;99.90;;;;;;5035565;28;20637;-67
2020/12/31 07:26:41;;;;;;;20.53;15.73;;;5.30;99.90;;;;;;5050534;28;20653;-67
2020/12/31 07:29:30;;;;;;;24.10;16.40;;;5.20;99.90;;;;;;5053891;28;21202;-67
2020/12/31 07:32:54;;;;;;;20.77;15.17;;;5.30;99.90;;;;;;5057876;28;20584;-67
2020/12/31 07:35:49;;;;;;;22.80;15.30;;;5.30;99.90;;;;;;5043543;28;21336;-67
2020/12/31 07:38:34;;;;;;;19.50;14.87;;;5.30;99.90;;;;;;5054774;28;20644;-67
2020/12/31 07:41:19;;;;;;;17.83;13.90;;;5.30;99.90;;;;;;5040275;28;20667;-67
2020/12/31 07:44:03;;;;;;;21.27;14.00;;;5.30;99.90;;;;;;5049398;28;21251;-67
2020/12/31 07:46:48;;;;;;;16.73;12.43;;;5.30;99.90;;;;;;5040584;28;20652;-67
2020/12/31 07:49:43;;;;;;;17.93;13.87;;;5.30;99.90;;;;;;5046371;28;20616;-67
2020/12/31 07:52:27;;;;;;;18.07;13.47;;;5.30;99.90;;;;;;5051737;28;20632;-67
2020/12/31 07:55:12;;;;;;;18.00;13.13;;;5.30;99.90;;;;;;5059748;28;20593;-67
2020/12/31 07:57:57;;;;;;;19.23;14.00;;;5.30;99.90;;;;;;5046714;28;20795;-67
2020/12/31 08:00:42;;;;;;;19.93;13.27;;;5.30;99.90;;;;;;5059948;28;20620;-67
2020/12/31 08:03:27;;;;;;;16.50;13.03;;;5.30;99.90;;;;;;5044097;28;20637;-67
2020/12/31 08:06:12;;;;;;;19.53;13.90;;;5.20;99.90;;;;;;5048420;28;20644;-67
2020/12/31 08:08:56;;;;;;;20.20;13.90;;;5.20;99.90;;;;;;5052556;28;20624;-68
2020/12/31 08:11:42;;;;;;;17.30;12.77;;;5.20;99.90;;;;;;5045274;28;21202;-68
2020/12/31 08:14:26;;;;;;;15.87;13.53;;;5.20;99.90;;;;;;5040323;28;20734;-68
2020/12/31 08:17:12;;;;;;;17.20;12.93;;;5.20;99.90;;;;;;5047191;28;21265;-67
2020/12/31 08:19:58;;;;;;;17.60;12.50;;;5.20;99.90;;;;;;5056898;28;20619;-67
2020/12/31 08:22:45;;;;;;;19.20;12.53;;;5.20;99.90;;;;;;5047018;28;20659;-67
2020/12/31 08:25:33;;;;;;;16.57;12.80;;;5.20;99.90;;;;;;5041303;28;20632;-67
2020/12/31 08:28:20;;;;;;;15.50;11.80;;;5.30;99.90;;;;;;5045397;28;20633;-67
2020/12/31 08:31:16;;;;;;;15.80;12.57;;;5.20;99.90;;;;;;5048075;28;21306;-67
2020/12/31 08:34:00;;;;;;;16.47;12.30;;;5.20;99.90;;;;;;5050105;28;22545;-66
2020/12/31 08:36:50;;;;;;;14.30;11.43;;;5.20;99.90;;;;;;5048932;28;20730;-67
2020/12/31 08:39:35;;;;;;;15.40;11.30;;;5.30;99.90;;;;;;5048876;28;20653;-67
2020/12/31 08:42:21;;;;;;;15.03;11.80;;;5.30;99.90;;;;;;5042501;28;20794;-67
2020/12/31 08:45:06;;;;;;;15.37;12.10;;;5.30;99.90;;;;;;5041234;28;20682;-67
2020/12/31 08:47:51;;;;;;;16.20;12.00;;;5.30;99.90;;;;;;5045446;28;20661;-67
2020/12/31 08:50:36;;;;;;;15.80;11.90;;;5.30;99.90;;;;;;5049246;28;20596;-67
2020/12/31 08:53:21;;;;;;;14.57;11.37;;;5.40;99.90;;;;;;5041687;28;20696;-66
2020/12/31 08:56:12;;;;;;;14.80;10.73;;;5.40;99.90;;;;;;5048534;28;20589;-66
2020/12/31 08:59:16;;;;;;;11.93;10.27;;;5.50;99.90;;;;;;5039646;28;20629;-68
2020/12/31 09:02:01;;;;;;;12.90;10.70;;;5.50;99.90;;;;;;5068222;28;20619;-66
2020/12/31 09:04:46;;;;;;;11.27;9.93;;;5.50;99.90;;;;;;5049609;28;20596;-67
2020/12/31 09:07:30;;;;;;;14.07;10.40;;;5.50;99.90;;;;;;5036622;28;21122;-66
2020/12/31 09:10:17;;;;;;;15.17;10.70;;;5.50;99.90;;;;;;5043157;28;20609;-67
2020/12/31 09:13:04;;;;;;;13.07;10.10;;;5.50;99.90;;;;;;5045956;28;20629;-67
2020/12/31 09:16:05;;;;;;;11.03;9.90;;;5.50;99.90;;;;;;5055638;28;20608;-67
2020/12/31 09:18:58;;;;;;;13.47;9.50;;;5.60;99.90;;;;;;5054645;28;20644;-67
2020/12/31 09:21:43;;;;;;;12.23;10.10;;;5.70;99.90;;;;;;5047648;28;20703;-67
2020/12/31 09:24:34;;;;;;;12.37;10.67;;;5.60;99.90;;;;;;5035267;28;20641;-67
2020/12/31 09:27:23;;;;;;;11.67;10.37;;;5.60;99.90;;;;;;5030474;28;20664;-68
2020/12/31 09:30:10;;;;;;;11.87;9.23;;;5.60;99.90;;;;;;5044486;28;21265;-68
2020/12/31 09:32:54;;;;;;;11.20;9.87;;;5.70;99.90;;;;;;5053221;28;21255;-67
2020/12/31 09:35:39;;;;;;;11.33;9.33;;;5.60;99.90;;;;;;5039178;28;20651;-67
2020/12/31 09:38:23;;;;;;;11.60;9.57;;;5.60;99.90;;;;;;5035183;28;20616;-68
2020/12/31 09:41:08;;;;;;;11.07;9.47;;;5.60;99.90;;;;;;5049103;28;20628;-67
2020/12/31 09:43:53;;;;;;;10.57;9.17;;;5.60;99.90;;;;;;5042247;28;20633;-70
2020/12/31 09:46:37;;;;;;;10.60;9.53;;;5.60;99.90;;;;;;5043869;28;20738;-71
2020/12/31 09:49:22;;;;;;;12.20;10.30;;;5.60;99.90;;;;;;5048212;28;20593;-68
2020/12/31 09:52:06;;;;;;;10.97;8.80;;;5.60;99.90;;;;;;5040683;28;20708;-68
2020/12/31 09:54:51;;;;;;;10.70;9.10;;;5.60;99.90;;;;;;5037483;28;20598;-70
2020/12/31 09:57:38;;;;;;;10.93;9.20;;;5.70;99.90;;;;;;5048287;28;20660;-68
2020/12/31 10:00:24;;;;;;;9.90;8.50;;;5.70;99.90;;;;;;5040162;28;20624;-68
2020/12/31 10:03:08;;;;;;;9.53;8.00;;;5.70;99.90;;;;;;5037329;28;20692;-68
2020/12/31 10:05:53;;;;;;;10.67;9.27;;;5.70;99.90;;;;;;5045214;28;20601;-68
2020/12/31 10:08:38;;;;;;;9.00;7.87;;;5.70;99.90;;;;;;5043088;28;20593;-68
2020/12/31 10:11:22;;;;;;;10.30;8.77;;;5.70;99.90;;;;;;5043369;28;21162;-68
2020/12/31 10:14:07;;;;;;;10.40;8.40;;;5.60;99.90;;;;;;5047740;28;20727;-69
2020/12/31 10:16:51;;;;;;;9.83;8.13;;;5.70;99.90;;;;;;5041506;28;20652;-68
2020/12/31 10:19:36;;;;;;;11.50;8.67;;;5.70;99.90;;;;;;5032540;28;20625;-68
2020/12/31 10:22:20;;;;;;;10.50;9.20;;;5.70;99.90;;;;;;5040736;28;20644;-69
2020/12/31 10:25:05;;;;;;;11.00;8.63;;;5.70;99.90;;;;;;5040210;28;20716;-67
2020/12/31 10:27:50;;;;;;;11.13;9.03;;;5.70;99.90;;;;;;5043505;28;21268;-68
2020/12/31 10:30:37;;;;;;;11.23;9.37;;;5.60;99.90;;;;;;5056464;28;20663;-68
2020/12/31 10:33:21;;;;;;;10.80;9.50;;;5.70;99.90;;;;;;5034005;28;20638;-68
2020/12/31 10:36:06;;;;;;;12.57;9.13;;;5.70;99.90;;;;;;5042913;28;20604;-68
2020/12/31 10:38:50;;;;;;;11.40;9.70;;;5.70;99.90;;;;;;5032633;28;21699;-68
2020/12/31 10:41:34;;;;;;;13.10;9.40;;;5.70;99.90;;;;;;5047402;28;20963;-68
2020/12/31 10:44:19;;;;;;;10.67;9.10;;;5.60;99.90;;;;;;5031391;28;21238;-68
2020/12/31 10:47:04;;;;;;;12.67;9.63;;;5.70;99.90;;;;;;5047888;28;20962;-68
2020/12/31 10:49:48;;;;;;;10.83;9.40;;;5.70;99.90;;;;;;5044446;28;20647;-68
2020/12/31 10:52:33;;;;;;;9.80;8.80;;;5.70;99.90;;;;;;5046056;28;20645;-68
2020/12/31 10:55:18;;;;;;;10.67;8.93;;;5.70;99.90;;;;;;5043765;28;20617;-68
2020/12/31 10:58:03;;;;;;;10.33;8.60;;;5.80;99.90;;;;;;5033292;28;20668;-68
2020/12/31 11:00:47;;;;;;;10.43;9.33;;;5.80;99.90;;;;;;5038714;28;20632;-68
2020/12/31 11:03:32;;;;;;;10.00;8.93;;;5.80;99.90;;;;;;5050569;28;21250;-68
2020/12/31 11:06:21;;;;;;;9.33;8.10;;;5.90;99.90;;;;;;5039092;28;20655;-68
2020/12/31 11:09:06;;;;;;;8.83;7.60;;;5.90;99.90;;;;;;5045827;28;20585;-68
2020/12/31 11:11:50;;;;;;;9.17;8.10;;;5.90;99.90;;;;;;5042991;28;21069;-68
2020/12/31 11:14:35;;;;;;;10.00;8.90;;;5.80;99.90;;;;;;5041283;28;20780;-68
2020/12/31 11:17:20;;;;;;;10.63;8.30;;;5.90;99.90;;;;;;5039600;28;20651;-68
2020/12/31 11:20:04;;;;;;;8.40;7.50;;;5.80;99.90;;;;;;5050519;28;20648;-68
2020/12/31 11:22:49;;;;;;;8.07;7.23;;;5.70;99.90;;;;;;5046357;28;20650;-68
2020/12/31 11:25:34;;;;;;;8.30;7.37;;;5.70;99.90;;;;;;5048724;28;20577;-68
2020/12/31 11:28:19;;;;;;;8.70;7.43;;;5.70;99.90;;;;;;5040557;28;20590;-68
2020/12/31 11:31:04;;;;;;;9.07;7.80;;;5.70;99.90;;;;;;5043626;28;20708;-68
2020/12/31 11:33:49;;;;;;;7.20;6.50;;;5.60;99.90;;;;;;5042077;28;21369;-68
2020/12/31 11:36:33;;;;;;;7.57;6.87;;;5.70;99.90;;;;;;5042618;28;21051;-68
2020/12/31 11:39:18;;;;;;;7.97;7.17;;;5.70;99.90;;;;;;5040251;28;20802;-68
2020/12/31 11:42:02;;;;;;;8.90;7.97;;;5.70;99.90;;;;;;5042693;28;20606;-68
2020/12/31 11:44:47;;;;;;;8.20;7.33;;;5.60;99.90;;;;;;5046814;28;20765;-68
2020/12/31 11:47:32;;;;;;;9.40;8.27;;;5.70;99.90;;;;;;5035171;28;20648;-68
2020/12/31 11:50:17;;;;;;;8.70;7.80;;;5.60;99.90;;;;;;5039308;28;20589;-68
2020/12/31 11:53:02;;;;;;;8.80;7.90;;;5.70;99.90;;;;;;5059124;28;21257;-70
2020/12/31 11:55:47;;;;;;;13.20;7.77;;;5.70;99.90;;;;;;5050001;28;20599;-67
2020/12/31 11:58:32;;;;;;;10.43;8.07;;;5.70;99.90;;;;;;5036471;28;20706;-68
2020/12/31 12:01:17;;;;;;;7.40;6.60;;;5.70;99.90;;;;;;5044699;28;20640;-68
2020/12/31 12:04:01;;;;;;;7.90;6.80;;;5.80;99.90;;;;;;5044188;28;20632;-70
2020/12/31 12:06:50;;;;;;;8.33;7.00;;;5.70;99.90;;;;;;5047413;28;20779;-70
2020/12/31 12:09:35;;;;;;;8.00;7.20;;;5.70;99.90;;;;;;5042390;28;20602;-68
2020/12/31 12:12:19;;;;;;;8.73;7.40;;;5.70;99.90;;;;;;5044440;28;21039;-67
2020/12/31 12:15:05;;;;;;;8.50;7.50;;;5.60;99.90;;;;;;5051282;28;20955;-68
2020/12/31 12:17:50;;;;;;;7.70;6.90;;;5.50;99.90;;;;;;5046740;28;20645;-70
2020/12/31 12:20:35;;;;;;;7.90;7.10;;;5.50;99.90;;;;;;5070952;28;20609;-70
2020/12/31 12:23:20;;;;;;;8.43;7.63;;;5.60;99.90;;;;;;5049926;28;20765;-70
2020/12/31 12:26:05;;;;;;;8.40;7.50;;;5.50;99.90;;;;;;5033572;28;20691;-69
2020/12/31 12:28:49;;;;;;;9.93;7.50;;;5.50;99.90;;;;;;5049836;28;20636;-69
2020/12/31 12:31:36;;;;;;;8.43;7.13;;;5.60;99.90;;;;;;5051522;28;20620;-70
2020/12/31 12:34:21;;;;;;;8.63;7.80;;;5.60;99.90;;;;;;5041245;28;21004;-70
2020/12/31 12:37:05;;;;;;;8.77;7.87;;;5.50;99.90;;;;;;5052700;28;20718;-70
2020/12/31 12:39:50;;;;;;;8.37;6.93;;;5.60;99.90;;;;;;5050318;28;20696;-70
2020/12/31 12:42:35;;;;;;;8.57;7.07;;;5.70;99.90;;;;;;5037397;28;20713;-68
2020/12/31 12:45:19;;;;;;;7.90;7.10;;;5.70;99.90;;;;;;5044808;28;20623;-71
2020/12/31 12:48:04;;;;;;;8.53;7.20;;;5.70;99.90;;;;;;5048526;28;20629;-73
2020/12/31 12:50:49;;;;;;;8.40;7.37;;;5.70;99.90;;;;;;5045347;28;20691;-72
2020/12/31 12:53:33;;;;;;;8.50;7.50;;;5.70;99.90;;;;;;5045917;28;21008;-72
2020/12/31 12:56:18;;;;;;;8.13;7.23;;;5.70;99.90;;;;;;5052017;28;20656;-69
2020/12/31 12:59:02;;;;;;;9.13;7.27;;;5.70;99.90;;;;;;5047957;28;20629;-69
2020/12/31 13:01:47;;;;;;;8.27;7.10;;;5.70;99.90;;;;;;5045909;28;20686;-69
2020/12/31 13:04:32;;;;;;;9.63;7.90;;;5.70;99.90;;;;;;5049370;28;21202;-70
2020/12/31 13:07:16;;;;;;;8.37;7.33;;;5.70;99.90;;;;;;5049487;28;20998;-69
2020/12/31 13:10:01;;;;;;;7.20;6.50;;;5.80;99.90;;;;;;5049541;28;20569;-69
2020/12/31 13:12:45;;;;;;;8.23;7.43;;;5.70;99.90;;;;;;5043242;28;20649;-69
2020/12/31 13:15:30;;;;;;;9.40;7.90;;;5.70;99.90;;;;;;5041998;28;20616;-72
2020/12/31 13:18:14;;;;;;;8.73;7.83;;;5.70;99.90;;;;;;5043875;28;20633;-68
2020/12/31 13:20:59;;;;;;;8.00;7.10;;;5.70;99.90;;;;;;5043804;28;20681;-69
2020/12/31 13:23:44;;;;;;;8.50;7.70;;;5.70;99.90;;;;;;5039054;28;21222;-70
2020/12/31 13:26:28;;;;;;;9.70;8.70;;;5.60;99.90;;;;;;5052207;28;20664;-68
2020/12/31 13:29:13;;;;;;;10.13;7.60;;;5.70;99.90;;;;;;5046658;28;20718;-69
2020/12/31 13:31:57;;;;;;;10.33;8.00;;;5.70;99.90;;;;;;5045364;28;20708;-68
2020/12/31 13:34:42;;;;;;;7.60;6.80;;;5.70;99.90;;;;;;5034187;28;20641;-68
2020/12/31 13:37:26;;;;;;;7.97;7.17;;;5.80;99.90;;;;;;5047080;28;20669;-73
2020/12/31 13:40:11;;;;;;;9.13;7.97;;;5.60;99.90;;;;;;5038897;28;20656;-71
2020/12/31 13:42:56;;;;;;;8.80;7.90;;;5.60;99.90;;;;;;5043653;28;22294;-71
2020/12/31 13:45:41;;;;;;;8.87;7.97;;;5.60;99.90;;;;;;5054097;28;20597;-71
2020/12/31 13:48:25;;;;;;;9.43;8.40;;;5.70;99.90;;;;;;5046122;28;20983;-69
2020/12/31 13:51:16;;;;;;;9.10;8.20;;;5.70;99.90;;;;;;5045570;28;20668;-67
2020/12/31 13:54:01;;;;;;;9.27;8.30;;;5.70;99.90;;;;;;5045658;28;20636;-68
2020/12/31 13:56:46;;;;;;;9.93;8.10;;;5.70;99.90;;;;;;5046326;28;20649;-71
2020/12/31 13:59:31;;;;;;;10.53;8.33;;;5.80;99.90;;;;;;5047951;28;20657;-68
2020/12/31 14:02:16;;;;;;;8.00;7.20;;;5.80;99.90;;;;;;5045159;28;20628;-67
2020/12/31 14:05:03;;;;;;;8.03;7.20;;;5.80;99.90;;;;;;5043194;28;20585;-69
2020/12/31 14:07:48;;;;;;;9.40;7.80;;;5.70;99.90;;;;;;5054021;28;20644;-68
2020/12/31 14:10:32;;;;;;;10.03;8.90;;;5.80;99.90;;;;;;5054585;28;21231;-67
2020/12/31 14:13:17;;;;;;;9.80;8.27;;;5.80;99.90;;;;;;5032424;28;20649;-68
2020/12/31 14:16:03;;;;;;;8.60;7.47;;;5.70;99.90;;;;;;5049741;28;20585;-68
2020/12/31 14:18:48;;;;;;;9.50;8.53;;;5.80;99.90;;;;;;5061379;28;20661;-68
2020/12/31 14:21:33;;;;;;;9.80;8.80;;;5.80;99.90;;;;;;5049108;28;20753;-67